createdAt,value
2023-01-20T00:03:26.794Z,99237.38
2023-01-20T00:08:28.512Z,99237.34
2023-01-20T00:13:30.153Z,99241.56
2023-01-20T00:18:32.182Z,99241.56
2023-01-20T00:23:34.065Z,99239.06
2023-01-20T00:28:35.913Z,99245.94
2023-01-20T00:33:37.619Z,99256.31
2023-01-20T00:38:39.534Z,99263.22
2023-01-20T00:43:41.676Z,99264.91
2023-01-20T00:48:43.372Z,99270.09
2023-01-20T00:53:45.098Z,99275.28
2023-01-20T00:58:46.856Z,99284.81
2023-01-20T01:03:48.559Z,99294.22
2023-01-20T01:08:50.223Z,99301.19
2023-01-20T01:13:51.875Z,99318.44
2023-01-20T01:18:56.622Z,99322.78
2023-01-20T01:23:58.473Z,99327.97
2023-01-20T01:29:00.117Z,99332.16
2023-01-20T01:34:01.794Z,99346.03
2023-01-20T01:39:03.756Z,99346.00
2023-01-20T01:44:07.353Z,99347.75
2023-01-20T01:49:14.019Z,99355.50
2023-01-20T01:54:19.119Z,99354.59
2023-01-20T01:59:21.839Z,99352.81
2023-01-20T02:04:26.411Z,99355.50
2023-01-20T02:09:29.111Z,99358.97
2023-01-20T02:14:49.679Z,99357.25
2023-01-20T02:20:28.675Z,99361.63
2023-01-20T02:26:27.425Z,99359.91
2023-01-20T02:32:04.295Z,99370.25
2023-01-20T02:37:46.841Z,99374.53
2023-01-20T02:42:58.438Z,99384.00
2023-01-20T02:48:24.665Z,99390.91
2023-01-20T02:53:32.887Z,99388.31
2023-01-20T02:59:00.933Z,99395.22
2023-01-20T03:04:04.155Z,99404.69
2023-01-20T03:09:15.764Z,99402.97
2023-01-20T03:14:17.879Z,99415.00
2023-01-20T03:19:20.685Z,99418.47
2023-01-20T03:24:23.879Z,99417.59
2023-01-20T03:29:25.685Z,99425.38
2023-01-20T03:34:30.187Z,99433.13
2023-01-20T03:39:46.981Z,99436.56
2023-01-20T03:44:57.456Z,99440.91
2023-01-20T03:50:10.367Z,99438.31
2023-01-20T03:55:15.441Z,99445.19
2023-01-20T04:00:20.642Z,99451.19
2023-01-20T04:05:22.500Z,99447.78
2023-01-20T04:10:27.660Z,99456.34
2023-01-20T04:15:34.406Z,99468.44
2023-01-20T04:20:36.500Z,99466.69
2023-01-20T04:25:38.393Z,99474.44
2023-01-20T04:30:40.046Z,99473.59
2023-01-20T04:35:43.116Z,99486.50
2023-01-20T04:40:44.778Z,99488.19
2023-01-20T04:45:46.470Z,99495.09
2023-01-20T04:50:48.162Z,99493.41
2023-01-20T04:55:49.857Z,99503.75
2023-01-20T05:00:51.749Z,99505.44
2023-01-20T05:05:54.788Z,99514.06
2023-01-20T05:10:56.447Z,99521.00
2023-01-20T05:15:58.293Z,99527.03
2023-01-20T05:21:00.634Z,99538.22
2023-01-20T05:26:02.250Z,99544.28
2023-01-20T05:31:04.179Z,99542.50
2023-01-20T05:36:07.246Z,99546.00
2023-01-20T05:41:10.347Z,99552.91
2023-01-20T05:46:12.292Z,99559.78
2023-01-20T05:51:14.064Z,99558.88
2023-01-20T05:56:16.197Z,99566.59
2023-01-20T06:01:18.036Z,99579.50
2023-01-20T06:06:19.804Z,99586.41
2023-01-20T06:11:21.875Z,99582.13
2023-01-20T06:16:23.600Z,99589.00
2023-01-20T06:21:25.668Z,99594.16
2023-01-20T06:26:27.342Z,99597.59
2023-01-20T06:31:29.065Z,99599.28
2023-01-20T06:36:30.744Z,99605.31
2023-01-20T06:41:32.477Z,99613.06
2023-01-20T06:46:34.161Z,99617.38
2023-01-20T06:51:35.863Z,99623.50
2023-01-20T06:56:37.504Z,99635.69
2023-01-20T07:01:40.548Z,99620.97
2023-01-20T07:06:42.594Z,99632.97
2023-01-20T07:11:44.328Z,99648.47
2023-01-20T07:16:46.877Z,99648.47
2023-01-20T07:21:48.552Z,99668.31
2023-01-20T07:26:52.747Z,99678.63
2023-01-20T07:31:54.553Z,99688.06
2023-01-20T07:36:56.238Z,99696.72
2023-01-20T07:41:57.949Z,99701.94
2023-01-20T07:47:00.127Z,99721.00
2023-01-20T07:52:01.933Z,99720.06
2023-01-20T07:57:03.571Z,99720.03
2023-01-20T08:02:05.606Z,99726.03
2023-01-20T08:07:07.270Z,99737.22
2023-01-20T08:12:08.937Z,99742.38
2023-01-20T08:17:10.748Z,99749.34
2023-01-20T08:22:12.597Z,99749.34
2023-01-20T08:27:14.221Z,99756.22
2023-01-20T08:32:15.934Z,99769.97
2023-01-20T08:37:17.710Z,99773.44
2023-01-20T08:42:19.421Z,99780.34
2023-01-20T08:47:21.063Z,99790.09
2023-01-20T08:52:22.994Z,99797.81
2023-01-20T08:57:28.302Z,99800.25
2023-01-20T09:02:30.139Z,99805.53
2023-01-20T09:07:31.919Z,99803.75
2023-01-20T09:12:33.612Z,99803.00
2023-01-20T09:17:36.200Z,99814.13
2023-01-20T09:22:39.334Z,99819.28
2023-01-20T09:27:40.938Z,99820.09
2023-01-20T09:32:42.566Z,99821.88
2023-01-20T09:38:02.775Z,99833.06
2023-01-20T09:43:39.923Z,99831.44
2023-01-20T09:49:15.643Z,99836.56
2023-01-20T09:54:26.142Z,99830.63
2023-01-20T09:59:35.723Z,99830.56
2023-01-20T10:04:43.548Z,99833.13
2023-01-20T10:09:57.478Z,99843.47
2023-01-20T10:15:25.236Z,99839.16
2023-01-20T10:20:36.728Z,99849.59
2023-01-20T10:25:49.805Z,99851.34
2023-01-20T10:30:51.589Z,99851.31
2023-01-20T10:35:57.023Z,99849.53
2023-01-20T10:41:27.014Z,99846.19
2023-01-20T10:46:46.744Z,99852.19
2023-01-20T10:52:15.997Z,99854.69
2023-01-20T10:57:17.846Z,99859.97
2023-01-20T11:02:25.691Z,99858.41
2023-01-20T11:07:29.033Z,99867.84
2023-01-20T11:12:35.865Z,99877.22
2023-01-20T11:17:38.673Z,99879.03
2023-01-20T11:22:46.203Z,99872.22
2023-01-20T11:27:48.028Z,99881.66
2023-01-20T11:33:17.141Z,99879.75
2023-01-20T11:38:26.951Z,99888.44
2023-01-20T11:43:35.632Z,99901.41
2023-01-20T11:48:37.304Z,99903.09
2023-01-20T11:53:39.293Z,99913.47
2023-01-20T11:58:57.506Z,99917.72
2023-01-20T12:04:31.100Z,99921.09
2023-01-20T12:09:43.924Z,99928.06
2023-01-20T12:15:03.852Z,99926.44
2023-01-20T12:20:14.387Z,99941.13
2023-01-20T12:25:20.952Z,99945.53
2023-01-20T12:30:38.417Z,99948.91
2023-01-20T12:35:59.512Z,99954.13
2023-01-20T12:41:07.803Z,99967.81
2023-01-20T12:46:18.557Z,99961.69
2023-01-20T12:51:41.409Z,99966.88
2023-01-20T12:56:43.263Z,99963.38
2023-01-20T13:02:10.103Z,99975.53
2023-01-20T13:07:34.519Z,99980.66
2023-01-20T13:12:50.667Z,99981.56
2023-01-20T13:18:07.802Z,99982.41
2023-01-20T13:23:14.328Z,99987.66
2023-01-20T13:28:26.322Z,99987.66
2023-01-20T13:33:39.442Z,99991.13
2023-01-20T13:38:41.202Z,100000.44
2023-01-20T13:43:42.828Z,100001.41
2023-01-20T13:49:13.595Z,100009.94
2023-01-20T13:54:32.784Z,100010.88
2023-01-20T13:59:34.436Z,100016.94
2023-01-20T14:04:44.795Z,100009.88
2023-01-20T14:09:54.982Z,100024.41
2023-01-20T14:14:56.668Z,100024.56
2023-01-20T14:19:58.339Z,100032.50
2023-01-20T14:25:01.802Z,100040.97
2023-01-20T14:30:18.753Z,100046.19
2023-01-20T14:35:29.907Z,100047.84
2023-01-20T14:40:36.898Z,100058.19
2023-01-20T14:45:43.662Z,100055.56
2023-01-20T14:50:50.301Z,100066.78
2023-01-20T14:56:09.522Z,100076.97
2023-01-20T15:01:20.791Z,100080.47
2023-01-20T15:06:24.452Z,100093.31
2023-01-20T15:11:29.042Z,100104.66
2023-01-20T15:16:36.763Z,100107.16
2023-01-20T15:21:39.577Z,100119.31
2023-01-20T15:26:41.659Z,100125.09
2023-01-20T15:31:43.659Z,100120.00
2023-01-20T15:36:46.665Z,100132.75
2023-01-20T15:41:53.799Z,100136.16
2023-01-20T15:46:57.504Z,100142.09
2023-01-20T15:51:59.670Z,100145.53
2023-01-20T15:57:01.403Z,100146.28
2023-01-20T16:02:04.006Z,100147.25
2023-01-20T16:07:05.806Z,100164.31
2023-01-20T16:12:12.209Z,100155.69
2023-01-20T16:17:16.377Z,100166.91
2023-01-20T16:22:18.054Z,100173.03
2023-01-20T16:27:22.107Z,100181.53
2023-01-20T16:32:24.106Z,100192.75
2023-01-20T16:37:50.801Z,100187.63
2023-01-20T16:42:54.798Z,100203.06
2023-01-20T16:47:57.482Z,100215.94
2023-01-20T16:52:59.622Z,100226.25
2023-01-20T16:58:01.684Z,100239.19
2023-01-20T17:03:04.584Z,100243.50
2023-01-20T17:08:06.590Z,100245.53
2023-01-20T17:13:08.912Z,100248.00
2023-01-20T17:18:11.548Z,100258.19
2023-01-20T17:23:13.793Z,100266.09
2023-01-20T17:28:18.492Z,100268.72
2023-01-20T17:33:20.159Z,100271.31
2023-01-20T17:38:22.499Z,100274.63
2023-01-20T17:43:24.181Z,100280.72
2023-01-20T17:48:26.606Z,100282.97
2023-01-20T17:53:28.287Z,100289.72
2023-01-20T17:58:30.053Z,100292.50
2023-01-20T18:03:31.725Z,100297.47
2023-01-20T18:08:34.255Z,100294.16
2023-01-20T18:13:36.711Z,100304.34
2023-01-20T18:18:39.748Z,100311.97
2023-01-20T18:23:42.451Z,100325.81
2023-01-20T18:28:47.872Z,100324.09
2023-01-20T18:33:57.528Z,100321.00
2023-01-20T18:39:05.056Z,100326.81
2023-01-20T18:44:07.279Z,100332.84
2023-01-20T18:49:12.518Z,100327.47
2023-01-20T18:54:24.962Z,100335.84
2023-01-20T18:59:26.640Z,100338.44
2023-01-20T19:04:29.883Z,100341.88
2023-01-20T19:09:31.513Z,100344.47
2023-01-20T19:14:33.299Z,100347.94
2023-01-20T19:19:35.184Z,100347.03
2023-01-20T19:24:40.119Z,100341.69
2023-01-20T19:29:42.343Z,100351.41
2023-01-20T19:34:46.026Z,100347.00
2023-01-20T19:39:49.158Z,100346.31
2023-01-20T19:44:51.711Z,100349.94
2023-01-20T19:49:53.589Z,100356.56
2023-01-20T19:54:55.255Z,100359.84
2023-01-20T19:59:57.882Z,100369.31
2023-01-20T20:05:00.153Z,100377.00
2023-01-20T20:10:02.082Z,100380.69
2023-01-20T20:15:05.525Z,100383.13
2023-01-20T20:20:07.496Z,100396.88
2023-01-20T20:25:11.977Z,100389.78
2023-01-20T20:30:13.942Z,100397.88
2023-01-20T20:35:16.564Z,100403.78
2023-01-20T20:40:18.694Z,100414.19
2023-01-20T20:45:20.596Z,100424.47
2023-01-20T20:50:23.936Z,100431.44
2023-01-20T20:55:29.336Z,100423.66
2023-01-20T21:00:31.201Z,100428.78
2023-01-20T21:05:33.951Z,100433.94
2023-01-20T21:10:36.407Z,100443.09
2023-01-20T21:15:38.596Z,100450.91
2023-01-20T21:20:40.902Z,100459.34
2023-01-20T21:25:43.717Z,100464.59
2023-01-20T21:30:46.205Z,100462.75
2023-01-20T21:35:48.768Z,100463.66
2023-01-20T21:41:02.722Z,100473.69
2023-01-20T21:46:04.654Z,100474.63
2023-01-20T21:51:28.727Z,100474.13
2023-01-20T21:56:30.462Z,100472.63
2023-01-20T22:01:32.285Z,100478.97
2023-01-20T22:06:34.036Z,100491.06
2023-01-20T22:11:36.171Z,100490.81
2023-01-20T22:16:38.077Z,100496.25
2023-01-20T22:21:40.145Z,100501.31
2023-01-20T22:26:41.878Z,100502.16
2023-01-20T22:31:45.138Z,100509.88
2023-01-20T22:36:47.110Z,100507.97
2023-01-20T22:41:48.778Z,100509.53
2023-01-20T22:46:52.207Z,100507.31
2023-01-20T22:51:55.256Z,100509.50
2023-01-20T22:56:56.877Z,100499.94
2023-01-20T23:01:58.562Z,100508.78
2023-01-20T23:07:00.577Z,100521.09
2023-01-20T23:12:02.234Z,100508.84
2023-01-20T23:17:03.836Z,100505.34
2023-01-20T23:22:05.483Z,100515.94
2023-01-20T23:27:07.120Z,100523.41
2023-01-20T23:32:08.906Z,100522.03
2023-01-20T23:37:10.507Z,100524.22
2023-01-20T23:42:12.131Z,100528.81
2023-01-20T23:47:13.790Z,100537.13
2023-01-20T23:52:15.436Z,100541.31
2023-01-20T23:57:17.078Z,100543.25
